Time;durP1;ratioP1;P1;durP2;ratioP2;P2;SDS_P1;SDS_P2;PMS_P1;PMS_P2;Temp;Humidity;BMP_temperature;BMP_pressure;BME280_temperature;BME280_humidity;BME280_pressure;Samples;Min_cycle;Max_cycle;Signal;HPM_P1;HPM_P2
2023/12/26 00:02:20;;;;;;;3.65;2.00;;;;;;;6.25;100.00;97073.69;5035614;28;20402;-83
2023/12/26 00:04:46;;;;;;;4.97;2.03;;;;;;;6.22;100.00;97076.78;5036176;28;20692;-83
2023/12/26 00:07:12;;;;;;;4.10;1.98;;;;;;;6.20;100.00;97079.63;5039601;28;20888;-83
2023/12/26 00:09:42;;;;;;;4.37;2.43;;;;;;;6.19;100.00;97072.78;5037754;28;20403;-83
2023/12/26 00:12:08;;;;;;;7.22;2.40;;;;;;;6.16;100.00;97075.09;5035164;28;20426;-83
2023/12/26 00:14:34;;;;;;;4.10;2.15;;;;;;;6.16;100.00;97077.72;5036852;28;20422;-83
2023/12/26 00:17:02;;;;;;;3.70;2.03;;;;;;;6.15;100.00;97082.16;5034782;28;20403;-84
2023/12/26 00:19:28;;;;;;;5.28;2.25;;;;;;;6.16;100.00;97080.34;5035401;28;20399;-84
2023/12/26 00:21:55;;;;;;;4.13;2.15;;;;;;;6.16;100.00;97073.22;5034714;28;20410;-84
2023/12/26 00:24:21;;;;;;;4.55;2.40;;;;;;;6.16;100.00;97072.47;5036503;28;20404;-84
2023/12/26 00:26:47;;;;;;;4.25;2.20;;;;;;;6.14;100.00;97067.44;5040809;28;20395;-84
2023/12/26 00:29:14;;;;;;;2.95;1.98;;;;;;;6.14;100.00;97070.06;5041387;28;20800;-84
2023/12/26 00:31:41;;;;;;;6.57;2.10;;;;;;;6.14;100.00;97061.38;5041656;28;20438;-84
2023/12/26 00:34:08;;;;;;;5.38;2.20;;;;;;;6.13;100.00;97062.41;5041070;28;20418;-83
2023/12/26 00:36:34;;;;;;;6.77;2.57;;;;;;;6.09;100.00;97059.41;5040393;28;20439;-84
2023/12/26 00:39:00;;;;;;;5.10;2.50;;;;;;;6.08;100.00;97065.72;5040005;28;20406;-83
2023/12/26 00:41:27;;;;;;;7.22;2.45;;;;;;;6.06;100.00;97061.72;5040061;28;20391;-84
2023/12/26 00:43:54;;;;;;;6.50;2.38;;;;;;;6.05;100.00;97060.13;5039825;28;20407;-84
2023/12/26 00:46:20;;;;;;;3.78;2.30;;;;;;;6.04;100.00;97071.66;5040134;28;20421;-84
2023/12/26 00:48:46;;;;;;;2.72;1.98;;;;;;;6.01;100.00;97066.88;5041085;28;20880;-84
2023/12/26 00:51:16;;;;;;;5.43;2.22;;;;;;;6.00;100.00;97065.28;5040208;28;20451;-84
2023/12/26 00:53:42;;;;;;;8.73;2.38;;;;;;;5.94;100.00;97068.81;5040793;28;20411;-84
2023/12/26 00:56:09;;;;;;;3.83;2.10;;;;;;;5.93;100.00;97064.59;5040286;28;20403;-84
2023/12/26 00:58:35;;;;;;;5.65;2.78;;;;;;;5.92;100.00;97069.03;5042226;28;20446;-84
2023/12/26 01:01:02;;;;;;;4.78;2.35;;;;;;;5.93;100.00;97070.66;5043733;28;20398;-84
2023/12/26 01:03:28;;;;;;;4.47;2.58;;;;;;;5.92;100.00;97071.66;5046021;28;20403;-84
2023/12/26 01:05:54;;;;;;;5.53;2.50;;;;;;;5.90;100.00;97065.84;5040745;28;20422;-83
2023/12/26 01:08:22;;;;;;;5.15;2.30;;;;;;;5.89;100.00;97066.84;5041009;28;20490;-84
2023/12/26 01:10:50;;;;;;;4.60;2.40;;;;;;;5.88;100.00;97074.97;5039336;28;20419;-83
2023/12/26 01:13:17;;;;;;;2.40;2.15;;;;;;;5.89;100.00;97084.44;5039821;28;20514;-84
2023/12/26 01:15:43;;;;;;;3.35;2.47;;;;;;;5.87;100.00;97092.50;5040630;28;20441;-84
2023/12/26 01:18:09;;;;;;;5.45;2.70;;;;;;;5.84;100.00;97091.16;5041095;28;20425;-84
2023/12/26 01:20:35;;;;;;;4.63;2.40;;;;;;;5.83;100.00;97092.19;5040289;28;20780;-84
2023/12/26 01:23:02;;;;;;;4.18;2.30;;;;;;;5.83;100.00;97100.06;5037005;28;20406;-84
2023/12/26 01:25:30;;;;;;;4.10;2.38;;;;;;;5.82;100.00;97103.72;5040879;28;20435;-84
2023/12/26 01:27:56;;;;;;;3.53;2.25;;;;;;;5.80;100.00;97105.75;5040863;28;20438;-85
2023/12/26 01:30:22;;;;;;;3.90;2.15;;;;;;;5.81;100.00;97102.09;5042164;28;20454;-84
2023/12/26 01:32:48;;;;;;;4.80;2.05;;;;;;;5.80;100.00;97108.38;5041616;28;20419;-84
2023/12/26 01:35:15;;;;;;;4.10;2.30;;;;;;;5.78;100.00;97096.53;5043417;28;20422;-84
2023/12/26 01:37:41;;;;;;;2.97;2.10;;;;;;;5.80;100.00;97099.72;5050464;28;20407;-84
2023/12/26 01:40:09;;;;;;;3.65;2.13;;;;;;;5.80;100.00;97102.34;5050685;28;20402;-84
2023/12/26 01:42:37;;;;;;;3.10;2.20;;;;;;;5.80;100.00;97105.75;5050593;28;20417;-84
2023/12/26 01:45:04;;;;;;;4.03;2.20;;;;;;;5.82;100.00;97108.97;5040406;28;20469;-84
2023/12/26 01:47:30;;;;;;;4.30;2.20;;;;;;;5.80;100.00;97111.00;5036066;28;20411;-83
2023/12/26 01:49:57;;;;;;;4.60;2.38;;;;;;;5.79;100.00;97119.91;5033451;28;20911;-83
2023/12/26 01:52:23;;;;;;;3.20;1.98;;;;;;;5.80;100.00;97123.34;5034162;28;20414;-83
2023/12/26 01:54:49;;;;;;;2.80;1.90;;;;;;;5.78;100.00;97131.47;5038755;28;20456;-83
2023/12/26 01:57:15;;;;;;;3.20;2.17;;;;;;;5.79;100.00;97130.41;5037073;28;20403;-83
2023/12/26 01:59:43;;;;;;;5.43;2.63;;;;;;;5.76;100.00;97130.09;5037386;28;20406;-83
2023/12/26 02:02:11;;;;;;;4.18;2.33;;;;;;;5.78;100.00;97139.34;5037099;28;20531;-83
2023/12/26 02:04:38;;;;;;;4.50;2.22;;;;;;;5.77;100.00;97137.75;5056453;28;20398;-83
2023/12/26 02:07:06;;;;;;;3.28;2.00;;;;;;;5.83;100.00;97143.91;5057677;28;20409;-83
2023/12/26 02:09:33;;;;;;;3.08;2.10;;;;;;;5.82;100.00;97139.69;5056912;28;20526;-84
2023/12/26 02:11:59;;;;;;;2.20;1.90;;;;;;;5.79;100.00;97133.03;5060654;28;20428;-84
2023/12/26 02:14:25;;;;;;;4.63;2.25;;;;;;;5.77;100.00;97140.38;5060953;28;20421;-84
2023/12/26 02:16:54;;;;;;;2.65;2.28;;;;;;;5.75;100.00;97142.41;5061117;28;20818;-83
2023/12/26 02:19:20;;;;;;;2.75;2.05;;;;;;;5.73;100.00;97139.22;5060906;28;20440;-83
2023/12/26 02:21:47;;;;;;;3.13;1.88;;;;;;;5.70;100.00;97131.81;5061459;28;20508;-83
2023/12/26 02:24:14;;;;;;;2.67;1.90;;;;;;;5.70;100.00;97141.50;5060665;28;20408;-84
2023/12/26 02:26:42;;;;;;;3.38;2.30;;;;;;;5.70;100.00;97149.38;5060580;28;20397;-83
2023/12/26 02:29:10;;;;;;;3.47;2.00;;;;;;;5.68;100.00;97146.97;5061825;28;20932;-83
2023/12/26 02:31:39;;;;;;;4.55;2.38;;;;;;;5.71;100.00;97132.59;5061630;28;20397;-84
2023/12/26 02:34:05;;;;;;;5.05;2.40;;;;;;;5.75;100.00;97144.25;5061153;28;20421;-84
2023/12/26 02:36:32;;;;;;;5.72;2.30;;;;;;;5.77;100.00;97136.94;5061228;28;20874;-84
2023/12/26 02:38:59;;;;;;;2.35;1.70;;;;;;;5.77;100.00;97137.75;5061542;28;20770;-84
2023/12/26 02:41:26;;;;;;;6.72;2.10;;;;;;;5.75;100.00;97139.78;5061506;28;20888;-84
2023/12/26 02:43:52;;;;;;;2.63;1.90;;;;;;;5.78;100.00;97136.72;5061162;28;20886;-84
2023/12/26 02:46:19;;;;;;;2.83;2.15;;;;;;;5.76;100.00;97144.03;5056109;28;20675;-83
2023/12/26 02:48:45;;;;;;;2.73;1.87;;;;;;;5.76;100.00;97138.78;5056987;28;20500;-84
2023/12/26 02:51:11;;;;;;;3.90;1.92;;;;;;;5.74;100.00;97134.75;5055464;28;20405;-83
2023/12/26 02:53:37;;;;;;;1.80;1.70;;;;;;;5.72;100.00;97144.69;5055180;28;20474;-84
2023/12/26 02:56:04;;;;;;;1.88;1.60;;;;;;;5.69;100.00;97156.47;5055740;28;20400;-83
2023/12/26 02:58:32;;;;;;;1.95;1.50;;;;;;;5.67;100.00;97157.69;5056479;28;20476;-83
2023/12/26 03:00:58;;;;;;;2.88;1.60;;;;;;;5.63;100.00;97153.94;5055016;28;20419;-84
2023/12/26 03:03:24;;;;;;;3.55;1.90;;;;;;;5.62;100.00;97158.38;5053872;28;20414;-83
2023/12/26 03:05:50;;;;;;;3.50;2.10;;;;;;;5.62;100.00;97153.13;5053955;28;20488;-83
2023/12/26 03:08:16;;;;;;;7.65;2.30;;;;;;;5.61;100.00;97146.28;5054547;28;20398;-84
2023/12/26 03:10:43;;;;;;;5.20;2.10;;;;;;;5.65;100.00;97142.16;5054308;28;20393;-84
2023/12/26 03:13:09;;;;;;;4.47;1.93;;;;;;;5.71;100.00;97151.75;5054496;28;20820;-83
2023/12/26 03:15:36;;;;;;;6.18;2.10;;;;;;;5.75;100.00;97144.25;5054168;28;20971;-83
2023/12/26 03:18:03;;;;;;;2.85;1.90;;;;;;;5.78;100.00;97149.84;5054026;28;20402;-83
2023/12/26 03:20:29;;;;;;;2.83;2.00;;;;;;;5.78;100.00;97152.47;5053954;28;20456;-83
2023/12/26 03:22:55;;;;;;;4.30;2.17;;;;;;;5.77;100.00;97157.97;5053892;28;20857;-83
2023/12/26 03:25:21;;;;;;;2.45;2.05;;;;;;;5.78;100.00;97162.19;5056753;28;20397;-84
2023/12/26 03:27:48;;;;;;;6.28;2.60;;;;;;;5.79;100.00;97150.63;5058347;28;20444;-84
2023/12/26 03:30:14;;;;;;;3.22;2.10;;;;;;;5.82;100.00;97158.88;5063105;28;20953;-84
2023/12/26 03:32:41;;;;;;;3.92;2.25;;;;;;;5.88;100.00;97156.38;5053563;28;20409;-83
2023/12/26 03:35:10;;;;;;;6.95;2.53;;;;;;;5.91;100.00;97142.81;5053951;28;20408;-84
2023/12/26 03:37:36;;;;;;;3.70;2.08;;;;;;;5.95;100.00;97155.25;5057788;28;20393;-84
2023/12/26 03:40:03;;;;;;;3.63;2.10;;;;;;;5.99;100.00;97151.16;5057769;28;20398;-84
2023/12/26 03:42:31;;;;;;;4.25;1.98;;;;;;;6.03;100.00;97143.63;5060416;28;20432;-84
2023/12/26 03:44:58;;;;;;;3.45;2.00;;;;;;;6.05;100.00;97154.69;5059884;28;20480;-83
2023/12/26 03:47:24;;;;;;;2.38;1.95;;;;;;;6.06;100.00;97162.38;5054302;28;20445;-84
2023/12/26 03:49:52;;;;;;;3.37;2.00;;;;;;;6.09;100.00;97158.50;5052136;28;20902;-84
2023/12/26 03:52:18;;;;;;;3.83;2.28;;;;;;;6.12;100.00;97153.56;5053118;28;20770;-83
2023/12/26 03:54:44;;;;;;;4.72;2.13;;;;;;;6.12;100.00;97153.56;5053486;28;20496;-84
2023/12/26 03:57:10;;;;;;;6.30;2.50;;;;;;;6.15;100.00;97162.81;5053755;28;20921;-83
2023/12/26 03:59:36;;;;;;;3.90;2.10;;;;;;;6.18;100.00;97152.66;5053630;28;20390;-83
2023/12/26 04:02:03;;;;;;;4.80;2.35;;;;;;;6.19;100.00;97153.44;5053209;28;20884;-83
2023/12/26 04:04:29;;;;;;;3.30;1.95;;;;;;;6.22;100.00;97161.69;5053212;28;20774;-83
2023/12/26 04:06:56;;;;;;;4.88;2.22;;;;;;;6.20;100.00;97158.47;5053240;28;20405;-83
2023/12/26 04:09:23;;;;;;;6.07;2.28;;;;;;;6.24;100.00;97152.78;5053246;28;20389;-83
2023/12/26 04:11:49;;;;;;;3.28;1.90;;;;;;;6.26;100.00;97159.38;5053257;28;20401;-83
2023/12/26 04:14:15;;;;;;;4.95;2.10;;;;;;;6.22;100.00;97155.63;5053365;28;20413;-84
2023/12/26 04:16:41;;;;;;;5.55;2.50;;;;;;;6.25;100.00;97143.84;5053868;28;20393;-83
2023/12/26 04:19:07;;;;;;;5.38;2.30;;;;;;;6.24;100.00;97143.03;5054218;28;20909;-84
2023/12/26 04:21:34;;;;;;;4.28;2.05;;;;;;;6.28;100.00;97146.81;5053687;28;20874;-83
2023/12/26 04:24:01;;;;;;;3.72;2.05;;;;;;;6.29;100.00;97150.25;5058601;28;20407;-83
2023/12/26 04:26:27;;;;;;;6.72;2.67;;;;;;;6.28;100.00;97153.91;5053009;28;20429;-83
2023/12/26 04:28:53;;;;;;;4.70;2.22;;;;;;;6.30;100.00;97144.78;5053045;28;20393;-83
2023/12/26 04:31:19;;;;;;;6.00;2.10;;;;;;;6.29;100.00;97137.91;5053153;28;20398;-84
2023/12/26 04:33:46;;;;;;;8.77;2.70;;;;;;;6.31;100.00;97146.38;5052470;28;20991;-83
2023/12/26 04:36:12;;;;;;;4.90;1.88;;;;;;;6.36;100.00;97148.31;5052588;28;20487;-83
2023/12/26 04:38:38;;;;;;;2.90;1.90;;;;;;;6.37;100.00;97163.84;5052889;28;20532;-83
2023/12/26 04:41:11;;;;;;;9.37;2.83;;;;;;;6.35;100.00;97165.09;5052416;28;20453;-83
2023/12/26 04:43:37;;;;;;;6.50;2.55;;;;;;;6.37;100.00;97155.16;5052672;28;20495;-83
2023/12/26 04:46:04;;;;;;;4.50;2.07;;;;;;;6.40;100.00;97163.38;5052138;28;20905;-83
2023/12/26 04:48:30;;;;;;;5.30;2.15;;;;;;;6.40;100.00;97163.38;5052451;28;20394;-83
2023/12/26 04:50:56;;;;;;;3.50;2.00;;;;;;;6.42;100.00;97168.41;5052483;28;20398;-83
2023/12/26 04:53:24;;;;;;;6.97;2.40;;;;;;;6.41;100.00;97167.63;5052208;28;20417;-83
2023/12/26 04:55:50;;;;;;;5.83;2.13;;;;;;;6.44;100.00;97164.53;5052313;28;20495;-83
2023/12/26 04:58:18;;;;;;;3.53;2.00;;;;;;;6.45;100.00;97176.66;5052241;28;20397;-83
2023/12/26 05:00:44;;;;;;;5.03;2.30;;;;;;;6.43;100.00;97175.28;5052421;28;20389;-84
2023/12/26 05:03:10;;;;;;;6.55;2.53;;;;;;;6.43;100.00;97172.66;5051754;28;20398;-83
2023/12/26 05:05:36;;;;;;;5.75;2.45;;;;;;;6.42;100.00;97165.78;5051892;28;20397;-83
2023/12/26 05:08:03;;;;;;;4.38;2.42;;;;;;;6.44;100.00;97174.25;5051967;28;20901;-83
2023/12/26 05:10:29;;;;;;;6.68;2.20;;;;;;;6.46;100.00;97177.47;5052571;28;20771;-84
2023/12/26 05:12:55;;;;;;;10.18;2.60;;;;;;;6.49;100.00;97171.72;5052628;28;20417;-85
2023/12/26 05:15:22;;;;;;;7.97;2.92;;;;;;;6.53;100.00;97175.50;5052951;28;20485;-85
2023/12/26 05:17:48;;;;;;;4.18;1.98;;;;;;;6.53;100.00;97172.88;5052151;28;20397;-84
2023/12/26 05:20:15;;;;;;;5.70;2.33;;;;;;;6.51;100.00;97178.34;5052672;28;20959;-84
2023/12/26 05:22:41;;;;;;;4.93;2.10;;;;;;;6.53;100.00;97176.31;5052544;28;20582;-84
2023/12/26 05:25:10;;;;;;;6.28;2.60;;;;;;;6.54;100.00;97162.09;5053026;28;20398;-84
2023/12/26 05:27:37;;;;;;;5.03;2.28;;;;;;;6.58;100.00;97165.09;5051624;28;20401;-84
2023/12/26 05:30:04;;;;;;;10.55;3.13;;;;;;;6.56;100.00;97159.25;5053456;28;20392;-85
2023/12/26 05:32:31;;;;;;;6.13;2.15;;;;;;;6.57;100.00;97153.78;5055038;28;20480;-85
2023/12/26 05:34:58;;;;;;;11.30;2.97;;;;;;;6.54;100.00;97156.06;5054757;28;20425;-85
2023/12/26 05:37:24;;;;;;;7.78;2.92;;;;;;;6.52;100.00;97147.59;5055885;28;20853;-84
2023/12/26 05:39:50;;;;;;;5.68;2.28;;;;;;;6.50;100.00;97160.97;5057040;28;20867;-84
2023/12/26 05:42:17;;;;;;;4.07;2.33;;;;;;;6.48;100.00;97176.19;5059173;28;20409;-84
2023/12/26 05:44:43;;;;;;;5.55;2.58;;;;;;;6.46;100.00;97175.63;5054119;28;20405;-84
2023/12/26 05:47:10;;;;;;;4.68;2.20;;;;;;;6.43;100.00;97177.91;5053367;28;20455;-85
2023/12/26 05:49:37;;;;;;;9.32;2.80;;;;;;;6.41;100.00;97169.44;5053831;28;20424;-85
2023/12/26 05:52:04;;;;;;;8.70;2.80;;;;;;;6.41;100.00;97170.25;5055609;28;20401;-86
2023/12/26 05:54:30;;;;;;;6.32;2.42;;;;;;;6.43;100.00;97172.66;5056974;28;20424;-84
2023/12/26 05:56:56;;;;;;;4.25;2.25;;;;;;;6.45;100.00;97179.28;5058620;28;20401;-84
2023/12/26 05:59:22;;;;;;;6.47;2.75;;;;;;;6.43;100.00;97178.72;5051802;28;20409;-84
2023/12/26 06:01:49;;;;;;;6.90;2.72;;;;;;;6.46;100.00;97185.34;5052620;28;20393;-84
2023/12/26 06:04:15;;;;;;;8.00;2.47;;;;;;;6.47;100.00;97179.84;5035263;28;20441;-84
2023/12/26 06:06:42;;;;;;;7.13;2.60;;;;;;;6.48;100.00;97185.91;5032203;28;20441;-84
2023/12/26 06:09:08;;;;;;;6.70;2.25;;;;;;;6.47;100.00;97184.28;5030676;28;20407;-84
2023/12/26 06:11:35;;;;;;;8.98;2.72;;;;;;;6.44;100.00;97184.75;5032184;28;20768;-84
2023/12/26 06:14:01;;;;;;;11.30;2.65;;;;;;;6.41;100.00;97183.38;5031476;28;20422;-84
2023/12/26 06:16:27;;;;;;;5.55;2.70;;;;;;;6.42;100.00;97190.25;5032745;28;20923;-85
2023/12/26 06:18:53;;;;;;;6.70;2.50;;;;;;;6.47;100.00;97186.91;5032654;28;20466;-84
2023/12/26 06:21:19;;;;;;;8.80;2.95;;;;;;;6.48;100.00;97178.00;5032366;28;20401;-85
2023/12/26 06:23:47;;;;;;;9.40;2.70;;;;;;;6.51;100.00;97180.19;5032051;28;20396;-85
2023/12/26 06:26:13;;;;;;;7.45;2.83;;;;;;;6.51;100.00;97170.47;5031951;28;20415;-84
2023/12/26 06:28:40;;;;;;;6.78;2.58;;;;;;;6.54;100.00;97164.72;5032381;28;20395;-85
2023/12/26 06:31:13;;;;;;;6.40;2.30;;;;;;;6.54;100.00;97169.22;5034580;28;20741;-85
2023/12/26 06:33:39;;;;;;;4.03;2.47;;;;;;;6.54;100.00;97174.47;5035008;28;20911;-85
2023/12/26 06:36:06;;;;;;;4.38;2.47;;;;;;;6.48;100.00;97178.00;5034679;28;20403;-85
2023/12/26 06:38:32;;;;;;;8.18;2.67;;;;;;;6.45;100.00;97186.38;5045878;28;20427;-85
2023/12/26 06:41:01;;;;;;;11.65;3.30;;;;;;;6.46;100.00;97201.13;5036463;28;20399;-84
2023/12/26 06:43:28;;;;;;;9.07;2.90;;;;;;;6.47;100.00;97202.69;5036145;28;20399;-84
2023/12/26 06:45:54;;;;;;;7.95;2.58;;;;;;;6.47;100.00;97205.31;5035829;28;20784;-84
2023/12/26 06:48:20;;;;;;;9.30;2.38;;;;;;;6.46;100.00;97203.75;5036257;28;20403;-84
2023/12/26 06:50:46;;;;;;;9.38;3.03;;;;;;;6.45;100.00;97212.66;5035879;28;20426;-86
2023/12/26 06:53:12;;;;;;;6.32;2.47;;;;;;;6.48;100.00;97206.94;5035952;28;20795;-84
2023/12/26 06:55:38;;;;;;;6.32;2.50;;;;;;;6.45;100.00;97202.16;5035270;28;20401;-84
2023/12/26 06:58:06;;;;;;;9.20;2.72;;;;;;;6.44;100.00;97195.28;5037031;28;20391;-84
2023/12/26 07:00:32;;;;;;;8.57;2.97;;;;;;;6.45;100.00;97191.63;5035854;28;20395;-84
2023/12/26 07:02:58;;;;;;;12.07;3.10;;;;;;;6.44;100.00;97188.19;5035299;28;20407;-83
2023/12/26 07:05:24;;;;;;;8.88;2.65;;;;;;;6.39;100.00;97195.94;5035848;28;20453;-84
2023/12/26 07:07:50;;;;;;;11.15;2.70;;;;;;;6.42;100.00;97195.50;5035732;28;20427;-84
2023/12/26 07:10:16;;;;;;;9.35;3.03;;;;;;;6.40;100.00;97194.13;5034706;28;20407;-84
2023/12/26 07:12:42;;;;;;;6.35;2.63;;;;;;;6.41;100.00;97204.41;5035465;28;20403;-84
2023/12/26 07:15:10;;;;;;;6.57;2.58;;;;;;;6.40;100.00;97225.66;5035307;28;20486;-85
2023/12/26 07:17:36;;;;;;;5.15;2.45;;;;;;;6.42;100.00;97223.63;5036393;28;20486;-84
2023/12/26 07:20:03;;;;;;;7.27;2.63;;;;;;;6.40;100.00;97228.31;5035724;28;20922;-85
2023/12/26 07:22:29;;;;;;;9.88;2.92;;;;;;;6.37;100.00;97234.84;5034977;28;20403;-84
2023/12/26 07:24:55;;;;;;;7.53;2.40;;;;;;;6.38;100.00;97239.06;5034024;28;20755;-84
2023/12/26 07:27:21;;;;;;;6.70;2.60;;;;;;;6.35;100.00;97238.72;5035073;28;20405;-85
2023/12/26 07:29:48;;;;;;;6.72;2.72;;;;;;;6.37;100.00;97244.53;5034398;28;20403;-83
2023/12/26 07:32:15;;;;;;;7.57;2.92;;;;;;;6.32;100.00;97241.78;5034561;28;20767;-83
2023/12/26 07:34:41;;;;;;;4.18;2.20;;;;;;;6.28;100.00;97257.22;5034710;28;20502;-84
2023/12/26 07:37:07;;;;;;;6.88;2.80;;;;;;;6.26;100.00;97268.97;5034751;28;20457;-84
2023/12/26 07:39:34;;;;;;;8.20;2.70;;;;;;;6.26;100.00;97261.91;5034627;28;20441;-83
2023/12/26 07:42:00;;;;;;;9.10;2.80;;;;;;;6.28;100.00;97253.78;5035225;28;20399;-83
2023/12/26 07:44:26;;;;;;;8.57;2.70;;;;;;;6.29;100.00;97258.81;5034778;28;20494;-84
2023/12/26 07:46:52;;;;;;;8.63;3.20;;;;;;;6.31;100.00;97262.03;5035650;28;20760;-84
2023/12/26 07:49:20;;;;;;;7.75;2.63;;;;;;;6.33;100.00;97267.84;5034487;28;20884;-84
2023/12/26 07:51:46;;;;;;;8.40;3.10;;;;;;;6.36;100.00;97271.84;5033320;28;20489;-83
2023/12/26 07:54:13;;;;;;;8.05;2.80;;;;;;;6.38;100.00;97280.31;5035074;28;20458;-84
2023/12/26 07:56:39;;;;;;;7.45;2.63;;;;;;;6.40;100.00;97289.56;5036054;28;20402;-84
2023/12/26 07:59:05;;;;;;;6.45;2.42;;;;;;;6.41;100.00;97309.59;5037623;28;20437;-83
2023/12/26 08:01:31;;;;;;;6.82;2.53;;;;;;;6.43;100.00;97298.84;5036304;28;20399;-83
2023/12/26 08:03:58;;;;;;;7.10;2.63;;;;;;;6.45;100.00;97304.69;5035559;28;20403;-84
2023/12/26 08:06:25;;;;;;;9.93;2.83;;;;;;;6.42;100.00;97299.88;5035673;28;20383;-84
2023/12/26 08:08:51;;;;;;;7.43;2.70;;;;;;;6.44;100.00;97305.72;5035493;28;20404;-83
2023/12/26 08:11:17;;;;;;;10.95;2.80;;;;;;;6.44;100.00;97301.25;5035374;28;20399;-83
2023/12/26 08:13:44;;;;;;;7.38;2.47;;;;;;;6.44;100.00;97297.81;5035105;28;20415;-83
2023/12/26 08:16:10;;;;;;;4.05;2.13;;;;;;;6.48;100.00;97307.66;5035939;28;20906;-84
2023/12/26 08:18:36;;;;;;;5.43;2.97;;;;;;;6.51;100.00;97309.84;5034983;28;20733;-83
2023/12/26 08:21:03;;;;;;;7.43;2.72;;;;;;;6.52;100.00;97305.38;5033335;28;20959;-83
2023/12/26 08:23:31;;;;;;;8.32;2.80;;;;;;;6.52;100.00;97319.34;5037685;28;20914;-86
2023/12/26 08:25:57;;;;;;;7.18;2.85;;;;;;;6.59;100.00;97303.44;5037676;28;20391;-84
2023/12/26 08:28:23;;;;;;;5.35;2.40;;;;;;;6.63;100.00;97312.47;5044701;28;20403;-83
2023/12/26 08:30:49;;;;;;;7.30;2.22;;;;;;;6.65;100.00;97313.03;5032881;28;20402;-82
2023/12/26 08:33:15;;;;;;;7.57;2.30;;;;;;;6.69;100.00;97322.06;5032650;28;20458;-84
2023/12/26 08:35:41;;;;;;;6.53;2.15;;;;;;;6.72;100.00;97323.47;5032474;28;20400;-83
2023/12/26 08:38:07;;;;;;;6.13;2.22;;;;;;;6.73;100.00;97319.81;5033437;28;20943;-84
2023/12/26 08:40:35;;;;;;;5.45;2.42;;;;;;;6.72;100.00;97332.16;5034361;28;20395;-84
2023/12/26 08:43:01;;;;;;;7.25;2.63;;;;;;;6.75;100.00;97333.53;5036058;28;20450;-85
2023/12/26 08:45:27;;;;;;;3.25;2.10;;;;;;;6.79;100.00;97342.56;5033205;28;20453;-84
2023/12/26 08:47:54;;;;;;;7.25;2.40;;;;;;;6.84;100.00;97337.44;5034724;28;20403;-85
2023/12/26 08:50:20;;;;;;;10.45;3.60;;;;;;;6.85;100.00;97350.34;5033738;28;20413;-85
2023/12/26 08:52:46;;;;;;;7.72;2.30;;;;;;;6.90;100.00;97345.22;5033610;28;20450;-84
2023/12/26 08:55:14;;;;;;;4.97;2.15;;;;;;;6.90;100.00;97358.38;5033932;28;20900;-85
2023/12/26 08:57:42;;;;;;;9.60;2.85;;;;;;;6.96;100.00;97354.03;5033988;28;20883;-85
2023/12/26 09:00:10;;;;;;;6.28;2.45;;;;;;;6.98;100.00;97349.34;5033398;28;20482;-84
2023/12/26 09:02:37;;;;;;;5.25;2.50;;;;;;;7.00;100.00;97355.16;5033843;28;20761;-84
2023/12/26 09:05:04;;;;;;;8.20;2.90;;;;;;;7.00;100.00;97357.78;5036597;28;20403;-85
2023/12/26 09:07:30;;;;;;;8.60;2.65;;;;;;;7.02;100.00;97357.56;5033839;28;20399;-85
2023/12/26 09:09:56;;;;;;;5.15;2.40;;;;;;;7.05;100.00;97368.44;5033011;28;20414;-85
2023/12/26 09:12:22;;;;;;;5.70;2.30;;;;;;;7.10;100.00;97370.38;5033620;28;20759;-84
2023/12/26 09:14:49;;;;;;;6.63;2.57;;;;;;;7.08;100.00;97369.81;5034666;28;20454;-85
2023/12/26 09:17:15;;;;;;;5.57;2.00;;;;;;;7.12;100.00;97368.31;5034418;28;20403;-85
2023/12/26 09:19:42;;;;;;;9.35;2.50;;;;;;;7.10;100.00;97380.91;5035284;28;20750;-84
2023/12/26 09:22:08;;;;;;;8.82;2.80;;;;;;;7.12;100.00;97381.50;5033913;28;20403;-84
2023/12/26 09:24:34;;;;;;;8.85;2.72;;;;;;;7.12;100.00;97384.91;5034445;28;20411;-86
2023/12/26 09:27:00;;;;;;;10.10;2.65;;;;;;;7.15;100.00;97388.91;5036002;28;20425;-86
2023/12/26 09:29:26;;;;;;;13.73;2.60;;;;;;;7.18;100.00;97391.09;5036993;28;20403;-85
2023/12/26 09:31:54;;;;;;;9.02;2.97;;;;;;;7.20;100.00;97389.03;5036637;28;20423;-88
2023/12/26 09:34:20;;;;;;;7.03;2.10;;;;;;;7.20;100.00;97402.22;5039056;28;20783;-86
2023/12/26 09:36:47;;;;;;;5.57;2.00;;;;;;;7.21;100.00;97380.94;5042147;28;20392;-85
2023/12/26 09:39:13;;;;;;;7.13;2.35;;;;;;;7.23;100.00;97388.56;5043370;28;20430;-86
2023/12/26 09:41:42;;;;;;;8.03;2.60;;;;;;;7.25;100.00;97392.59;5042839;28;20398;-85
2023/12/26 09:44:09;;;;;;;6.72;2.30;;;;;;;7.25;100.00;97405.75;5040442;28;20415;-85
2023/12/26 09:46:37;;;;;;;5.57;2.13;;;;;;;7.28;100.00;97405.31;5037233;28;20455;-84
2023/12/26 09:49:05;;;;;;;6.35;2.47;;;;;;;7.29;100.00;97409.50;5034579;28;20489;-85
2023/12/26 09:51:37;;;;;;;3.38;2.00;;;;;;;7.33;100.00;97407.25;5034438;28;20831;-85
2023/12/26 09:54:04;;;;;;;8.60;2.33;;;;;;;7.32;100.00;97411.69;5032649;28;20932;-84
2023/12/26 09:56:33;;;;;;;4.70;2.30;;;;;;;7.34;100.00;97409.66;5033109;28;20390;-85
2023/12/26 09:59:01;;;;;;;5.35;1.92;;;;;;;7.37;100.00;97419.69;5032963;28;20395;-84
2023/12/26 10:01:28;;;;;;;5.05;1.80;;;;;;;7.40;100.00;97436.88;5033520;28;20391;-85
2023/12/26 10:03:56;;;;;;;5.15;2.17;;;;;;;7.47;100.00;97436.75;5045974;28;20496;-85
2023/12/26 10:06:24;;;;;;;5.00;2.20;;;;;;;7.42;100.00;97441.94;5052699;28;20752;-85
2023/12/26 10:08:50;;;;;;;7.30;2.10;;;;;;;7.42;100.00;97431.41;5052490;28;20747;-85
2023/12/26 10:11:16;;;;;;;6.70;2.10;;;;;;;7.47;100.00;97442.03;5053217;28;20401;-85
2023/12/26 10:13:43;;;;;;;5.05;1.80;;;;;;;7.48;100.00;97435.75;5054990;28;20417;-84
2023/12/26 10:16:09;;;;;;;3.50;1.90;;;;;;;7.55;100.00;97450.41;5057235;28;20483;-85
2023/12/26 10:18:36;;;;;;;4.28;1.80;;;;;;;7.56;100.00;97449.38;5059889;28;20420;-85
2023/12/26 10:21:02;;;;;;;6.15;2.15;;;;;;;7.55;100.00;97447.75;5060706;28;20408;-85
2023/12/26 10:23:30;;;;;;;3.88;1.67;;;;;;;7.57;100.00;97434.38;5067589;28;20437;-85
2023/12/26 10:25:57;;;;;;;5.78;2.10;;;;;;;7.61;100.00;97451.28;5057815;28;20436;-85
2023/12/26 10:28:23;;;;;;;5.78;1.90;;;;;;;7.61;100.00;97440.75;5056106;28;20399;-84
2023/12/26 10:30:49;;;;;;;4.25;1.90;;;;;;;7.65;100.00;97441.91;5056113;28;20425;-85
2023/12/26 10:33:25;;;;;;;3.95;1.60;;;;;;;7.66;100.00;97439.06;5056248;28;20801;-85
2023/12/26 10:36:01;;;;;;;2.40;1.70;;;;;;;7.70;100.00;97437.56;5056616;28;20408;-84
2023/12/26 10:38:27;;;;;;;4.88;2.30;;;;;;;7.73;100.00;97441.56;5056450;28;20398;-84
2023/12/26 10:40:58;;;;;;;4.43;2.13;;;;;;;7.75;100.00;97429.75;5056154;28;20797;-85
2023/12/26 10:43:26;;;;;;;4.60;1.90;;;;;;;7.77;100.00;97429.53;5057221;28;20401;-84
2023/12/26 10:45:55;;;;;;;6.13;2.30;;;;;;;7.79;100.00;97430.09;5056049;28;20389;-85
2023/12/26 10:48:21;;;;;;;3.70;1.70;;;;;;;7.81;100.00;97437.78;5056086;28;20406;-84
2023/12/26 10:50:49;;;;;;;5.00;2.00;;;;;;;7.79;100.00;97451.19;5055739;28;20432;-85
2023/12/26 10:53:19;;;;;;;5.10;2.20;;;;;;;7.81;100.00;97443.06;5055987;28;20420;-85
2023/12/26 10:55:46;;;;;;;2.75;1.60;;;;;;;7.75;100.00;97450.81;5056913;28;20427;-86
2023/12/26 10:58:14;;;;;;;5.40;1.80;;;;;;;7.74;100.00;97448.44;5055587;28;20409;-85
2023/12/26 11:00:41;;;;;;;3.83;1.85;;;;;;;7.78;100.00;97462.75;5057903;28;20428;-85
2023/12/26 11:03:07;;;;;;;3.80;1.90;;;;;;;7.84;100.00;97474.19;5054092;28;20449;-85
2023/12/26 11:05:33;;;;;;;3.35;1.80;;;;;;;7.88;100.00;97477.97;5040584;28;20406;-86
2023/12/26 11:08:00;;;;;;;3.13;1.90;;;;;;;7.89;100.00;97469.84;5036031;28;20468;-84
2023/12/26 11:10:26;;;;;;;5.05;1.88;;;;;;;7.97;100.00;97464.19;5035164;28;20764;-84
2023/12/26 11:12:52;;;;;;;4.93;1.77;;;;;;;8.06;100.00;97475.19;5035855;28;20448;-85
2023/12/26 11:15:20;;;;;;;2.78;1.88;;;;;;;8.11;100.00;97468.22;5036051;28;20395;-84
2023/12/26 11:17:46;;;;;;;3.25;1.70;;;;;;;8.24;100.00;97466.31;5035082;28;20403;-85
2023/12/26 11:20:12;;;;;;;3.20;1.80;;;;;;;8.35;100.00;97473.41;5037198;28;20403;-85
2023/12/26 11:22:39;;;;;;;4.45;1.70;;;;;;;8.43;100.00;97483.59;5035815;28;20814;-84
2023/12/26 11:25:05;;;;;;;4.20;1.88;;;;;;;8.51;100.00;97484.03;5035100;28;20438;-85
2023/12/26 11:27:31;;;;;;;4.88;1.80;;;;;;;8.64;100.00;97479.53;5036095;28;20403;-85
2023/12/26 11:29:57;;;;;;;4.45;1.92;;;;;;;8.63;100.00;97483.19;5034739;28;20394;-85
2023/12/26 11:32:24;;;;;;;3.10;1.60;;;;;;;8.69;100.00;97476.97;5034209;28;20411;-85